sensor_id;sensor_type;location;lat;lon;timestamp;temperature;humidity
18289;DHT22;9270;49.774;8.472;2023-05-31T00:02:22;17.20;71.50
18289;DHT22;9270;49.774;8.472;2023-05-31T00:04:49;17.20;71.70
18289;DHT22;9270;49.774;8.472;2023-05-31T00:07:16;17.20;71.90
18289;DHT22;9270;49.774;8.472;2023-05-31T00:09:42;17.10;71.80
18289;DHT22;9270;49.774;8.472;2023-05-31T00:12:09;17.20;72.10
18289;DHT22;9270;49.774;8.472;2023-05-31T00:14:37;17.20;72.40
18289;DHT22;9270;49.774;8.472;2023-05-31T00:17:05;17.10;72.50
18289;DHT22;9270;49.774;8.472;2023-05-31T00:19:31;17.00;72.70
18289;DHT22;9270;49.774;8.472;2023-05-31T00:21:58;17.00;72.70
18289;DHT22;9270;49.774;8.472;2023-05-31T00:24:25;17.10;72.80
18289;DHT22;9270;49.774;8.472;2023-05-31T00:26:52;17.10;73.00
18289;DHT22;9270;49.774;8.472;2023-05-31T00:29:18;17.10;73.30
18289;DHT22;9270;49.774;8.472;2023-05-31T00:31:46;17.10;73.20
18289;DHT22;9270;49.774;8.472;2023-05-31T00:34:13;17.00;73.30
18289;DHT22;9270;49.774;8.472;2023-05-31T00:36:40;17.10;73.20
18289;DHT22;9270;49.774;8.472;2023-05-31T00:39:07;17.10;73.00
18289;DHT22;9270;49.774;8.472;2023-05-31T00:41:33;17.10;73.30
18289;DHT22;9270;49.774;8.472;2023-05-31T00:44:00;17.10;73.50
18289;DHT22;9270;49.774;8.472;2023-05-31T00:46:30;17.00;73.60
18289;DHT22;9270;49.774;8.472;2023-05-31T00:48:59;17.00;74.00
18289;DHT22;9270;49.774;8.472;2023-05-31T00:51:27;17.00;74.00
18289;DHT22;9270;49.774;8.472;2023-05-31T00:53:56;17.00;74.30
18289;DHT22;9270;49.774;8.472;2023-05-31T00:56:23;17.00;74.60
18289;DHT22;9270;49.774;8.472;2023-05-31T00:58:51;16.90;74.70
18289;DHT22;9270;49.774;8.472;2023-05-31T01:01:20;16.90;75.00
18289;DHT22;9270;49.774;8.472;2023-05-31T01:03:47;16.80;75.10
18289;DHT22;9270;49.774;8.472;2023-05-31T01:06:15;16.80;75.40
18289;DHT22;9270;49.774;8.472;2023-05-31T01:08:41;16.80;75.80
18289;DHT22;9270;49.774;8.472;2023-05-31T01:11:12;16.70;76.20
18289;DHT22;9270;49.774;8.472;2023-05-31T01:13:44;16.60;76.60
18289;DHT22;9270;49.774;8.472;2023-05-31T01:16:18;16.60;76.80
18289;DHT22;9270;49.774;8.472;2023-05-31T01:18:50;16.60;77.00
18289;DHT22;9270;49.774;8.472;2023-05-31T01:21:28;16.60;77.30
18289;DHT22;9270;49.774;8.472;2023-05-31T01:26:48;16.50;77.70
18289;DHT22;9270;49.774;8.472;2023-05-31T01:29:18;16.50;77.90
18289;DHT22;9270;49.774;8.472;2023-05-31T01:31:46;16.50;78.10
18289;DHT22;9270;49.774;8.472;2023-05-31T01:34:13;16.40;78.60
18289;DHT22;9270;49.774;8.472;2023-05-31T01:36:40;16.30;78.90
18289;DHT22;9270;49.774;8.472;2023-05-31T01:39:07;16.30;78.90
18289;DHT22;9270;49.774;8.472;2023-05-31T01:41:38;16.30;79.30
18289;DHT22;9270;49.774;8.472;2023-05-31T01:44:08;16.20;79.70
18289;DHT22;9270;49.774;8.472;2023-05-31T01:46:36;16.20;80.20
18289;DHT22;9270;49.774;8.472;2023-05-31T01:49:03;16.10;80.20
18289;DHT22;9270;49.774;8.472;2023-05-31T01:51:32;16.10;80.60
18289;DHT22;9270;49.774;8.472;2023-05-31T01:53:59;16.00;80.90
18289;DHT22;9270;49.774;8.472;2023-05-31T01:56:27;16.00;81.30
18289;DHT22;9270;49.774;8.472;2023-05-31T01:58:55;15.90;81.60
18289;DHT22;9270;49.774;8.472;2023-05-31T02:01:25;15.90;82.00
18289;DHT22;9270;49.774;8.472;2023-05-31T02:03:52;15.80;82.10
18289;DHT22;9270;49.774;8.472;2023-05-31T02:06:20;15.80;82.10
18289;DHT22;9270;49.774;8.472;2023-05-31T02:08:46;15.80;82.40
18289;DHT22;9270;49.774;8.472;2023-05-31T02:11:13;15.80;82.80
18289;DHT22;9270;49.774;8.472;2023-05-31T02:13:40;15.80;82.90
18289;DHT22;9270;49.774;8.472;2023-05-31T02:16:07;15.80;83.30
18289;DHT22;9270;49.774;8.472;2023-05-31T02:18:35;15.70;83.00
18289;DHT22;9270;49.774;8.472;2023-05-31T02:21:02;15.70;83.40
18289;DHT22;9270;49.774;8.472;2023-05-31T02:23:31;15.70;83.90
18289;DHT22;9270;49.774;8.472;2023-05-31T02:25:58;15.70;83.80
18289;DHT22;9270;49.774;8.472;2023-05-31T02:28:25;15.70;83.90
18289;DHT22;9270;49.774;8.472;2023-05-31T02:30:55;15.60;84.30
18289;DHT22;9270;49.774;8.472;2023-05-31T02:33:22;15.60;84.50
18289;DHT22;9270;49.774;8.472;2023-05-31T02:35:51;15.60;84.80
18289;DHT22;9270;49.774;8.472;2023-05-31T02:38:18;15.60;84.80
18289;DHT22;9270;49.774;8.472;2023-05-31T02:40:45;15.60;84.90
18289;DHT22;9270;49.774;8.472;2023-05-31T02:43:12;15.60;85.60
18289;DHT22;9270;49.774;8.472;2023-05-31T02:45:38;15.60;85.70
18289;DHT22;9270;49.774;8.472;2023-05-31T02:48:05;15.50;86.00
18289;DHT22;9270;49.774;8.472;2023-05-31T02:50:33;15.50;86.20
18289;DHT22;9270;49.774;8.472;2023-05-31T02:53:01;15.50;86.70
18289;DHT22;9270;49.774;8.472;2023-05-31T02:55:30;15.50;87.20
18289;DHT22;9270;49.774;8.472;2023-05-31T02:57:56;15.50;87.20
18289;DHT22;9270;49.774;8.472;2023-05-31T03:00:23;15.50;87.90
18289;DHT22;9270;49.774;8.472;2023-05-31T03:02:51;15.50;88.10
18289;DHT22;9270;49.774;8.472;2023-05-31T03:05:18;15.40;88.60
18289;DHT22;9270;49.774;8.472;2023-05-31T03:07:45;15.50;88.80
18289;DHT22;9270;49.774;8.472;2023-05-31T03:10:13;15.40;89.40
18289;DHT22;9270;49.774;8.472;2023-05-31T03:12:39;15.40;89.60
18289;DHT22;9270;49.774;8.472;2023-05-31T03:15:07;15.40;89.80
18289;DHT22;9270;49.774;8.472;2023-05-31T03:17:34;15.40;90.40
18289;DHT22;9270;49.774;8.472;2023-05-31T03:20:04;15.30;90.80
18289;DHT22;9270;49.774;8.472;2023-05-31T03:22:32;15.40;90.50
18289;DHT22;9270;49.774;8.472;2023-05-31T03:24:59;15.40;90.60
18289;DHT22;9270;49.774;8.472;2023-05-31T03:27:27;15.40;91.10
18289;DHT22;9270;49.774;8.472;2023-05-31T03:29:53;15.40;91.10
18289;DHT22;9270;49.774;8.472;2023-05-31T03:32:20;15.40;91.30
18289;DHT22;9270;49.774;8.472;2023-05-31T03:34:47;15.30;91.40
18289;DHT22;9270;49.774;8.472;2023-05-31T03:37:14;15.30;91.70
18289;DHT22;9270;49.774;8.472;2023-05-31T03:39:40;15.30;91.80
18289;DHT22;9270;49.774;8.472;2023-05-31T03:42:07;15.30;91.90
18289;DHT22;9270;49.774;8.472;2023-05-31T03:44:35;15.30;92.10
18289;DHT22;9270;49.774;8.472;2023-05-31T03:47:02;15.30;92.20
18289;DHT22;9270;49.774;8.472;2023-05-31T03:49:29;15.20;92.50
18289;DHT22;9270;49.774;8.472;2023-05-31T03:51:56;15.30;92.50
18289;DHT22;9270;49.774;8.472;2023-05-31T03:54:22;15.30;92.70
18289;DHT22;9270;49.774;8.472;2023-05-31T03:56:49;15.30;92.90
18289;DHT22;9270;49.774;8.472;2023-05-31T03:59:16;15.20;93.00
18289;DHT22;9270;49.774;8.472;2023-05-31T04:01:44;15.20;93.20
18289;DHT22;9270;49.774;8.472;2023-05-31T04:04:11;15.30;93.20
18289;DHT22;9270;49.774;8.472;2023-05-31T04:06:37;15.40;93.70
18289;DHT22;9270;49.774;8.472;2023-05-31T04:09:04;15.40;93.30
18289;DHT22;9270;49.774;8.472;2023-05-31T04:11:31;15.40;93.30
18289;DHT22;9270;49.774;8.472;2023-05-31T04:13:58;15.40;93.60
18289;DHT22;9270;49.774;8.472;2023-05-31T04:16:25;15.30;94.00
18289;DHT22;9270;49.774;8.472;2023-05-31T04:18:53;15.40;94.20
18289;DHT22;9270;49.774;8.472;2023-05-31T04:21:20;15.40;94.30
18289;DHT22;9270;49.774;8.472;2023-05-31T04:23:46;15.40;94.50
18289;DHT22;9270;49.774;8.472;2023-05-31T04:26:13;15.50;94.50
18289;DHT22;9270;49.774;8.472;2023-05-31T04:28:42;15.50;94.70
18289;DHT22;9270;49.774;8.472;2023-05-31T04:31:09;15.50;94.70
18289;DHT22;9270;49.774;8.472;2023-05-31T04:33:36;15.50;94.90
18289;DHT22;9270;49.774;8.472;2023-05-31T04:36:05;15.60;95.00
18289;DHT22;9270;49.774;8.472;2023-05-31T04:38:34;15.70;95.10
18289;DHT22;9270;49.774;8.472;2023-05-31T04:41:01;15.70;94.80
18289;DHT22;9270;49.774;8.472;2023-05-31T04:43:28;15.80;95.00
18289;DHT22;9270;49.774;8.472;2023-05-31T04:45:55;16.00;94.30
18289;DHT22;9270;49.774;8.472;2023-05-31T04:48:23;16.00;94.30
18289;DHT22;9270;49.774;8.472;2023-05-31T04:50:52;16.10;94.10
18289;DHT22;9270;49.774;8.472;2023-05-31T04:53:22;16.20;94.10
18289;DHT22;9270;49.774;8.472;2023-05-31T04:55:49;16.30;93.90
18289;DHT22;9270;49.774;8.472;2023-05-31T04:58:17;16.30;93.50
18289;DHT22;9270;49.774;8.472;2023-05-31T05:00:45;16.40;93.40
18289;DHT22;9270;49.774;8.472;2023-05-31T05:03:12;16.50;93.40
18289;DHT22;9270;49.774;8.472;2023-05-31T05:05:39;16.50;93.30
18289;DHT22;9270;49.774;8.472;2023-05-31T05:08:05;16.50;93.00
18289;DHT22;9270;49.774;8.472;2023-05-31T05:10:34;16.50;93.00
18289;DHT22;9270;49.774;8.472;2023-05-31T05:13:00;16.60;93.00
18289;DHT22;9270;49.774;8.472;2023-05-31T05:15:27;16.70;93.00
18289;DHT22;9270;49.774;8.472;2023-05-31T05:17:54;16.80;92.70
18289;DHT22;9270;49.774;8.472;2023-05-31T05:20:21;17.00;92.40
18289;DHT22;9270;49.774;8.472;2023-05-31T05:22:50;17.00;92.30
18289;DHT22;9270;49.774;8.472;2023-05-31T05:25:17;17.20;92.00
18289;DHT22;9270;49.774;8.472;2023-05-31T05:27:47;17.20;91.40
18289;DHT22;9270;49.774;8.472;2023-05-31T05:30:14;17.30;91.30
18289;DHT22;9270;49.774;8.472;2023-05-31T05:32:41;17.30;91.30
18289;DHT22;9270;49.774;8.472;2023-05-31T05:35:07;17.30;91.10
18289;DHT22;9270;49.774;8.472;2023-05-31T05:37:34;17.50;90.80
18289;DHT22;9270;49.774;8.472;2023-05-31T05:40:01;17.70;90.40
18289;DHT22;9270;49.774;8.472;2023-05-31T05:42:30;17.80;90.30
18289;DHT22;9270;49.774;8.472;2023-05-31T05:44:59;18.10;90.00
18289;DHT22;9270;49.774;8.472;2023-05-31T05:47:25;18.40;88.90
18289;DHT22;9270;49.774;8.472;2023-05-31T05:49:52;18.80;86.90
18289;DHT22;9270;49.774;8.472;2023-05-31T05:52:19;19.20;85.50
18289;DHT22;9270;49.774;8.472;2023-05-31T05:54:45;19.50;83.40
18289;DHT22;9270;49.774;8.472;2023-05-31T05:57:12;20.10;81.80
18289;DHT22;9270;49.774;8.472;2023-05-31T05:59:39;20.50;80.10
18289;DHT22;9270;49.774;8.472;2023-05-31T06:02:08;20.90;78.10
18289;DHT22;9270;49.774;8.472;2023-05-31T06:04:34;21.40;76.50
18289;DHT22;9270;49.774;8.472;2023-05-31T06:07:01;21.90;74.30
18289;DHT22;9270;49.774;8.472;2023-05-31T06:09:28;22.20;72.50
18289;DHT22;9270;49.774;8.472;2023-05-31T06:11:54;22.50;71.20
18289;DHT22;9270;49.774;8.472;2023-05-31T06:14:21;22.70;71.00
18289;DHT22;9270;49.774;8.472;2023-05-31T06:16:48;23.00;69.70
18289;DHT22;9270;49.774;8.472;2023-05-31T06:19:16;23.20;68.70
18289;DHT22;9270;49.774;8.472;2023-05-31T06:21:43;23.50;67.20
18289;DHT22;9270;49.774;8.472;2023-05-31T06:24:10;24.00;66.40
18289;DHT22;9270;49.774;8.472;2023-05-31T06:26:36;24.50;65.60
18289;DHT22;9270;49.774;8.472;2023-05-31T06:29:04;24.90;65.10
18289;DHT22;9270;49.774;8.472;2023-05-31T06:31:31;25.10;63.60
18289;DHT22;9270;49.774;8.472;2023-05-31T06:33:57;25.30;63.10
18289;DHT22;9270;49.774;8.472;2023-05-31T06:36:26;25.80;62.60
18289;DHT22;9270;49.774;8.472;2023-05-31T06:38:52;26.00;60.90
18289;DHT22;9270;49.774;8.472;2023-05-31T06:41:19;26.30;60.80
18289;DHT22;9270;49.774;8.472;2023-05-31T06:43:46;26.50;60.00
18289;DHT22;9270;49.774;8.472;2023-05-31T06:46:12;26.90;58.80
18289;DHT22;9270;49.774;8.472;2023-05-31T06:48:39;27.00;58.80
18289;DHT22;9270;49.774;8.472;2023-05-31T06:51:06;27.20;57.50
18289;DHT22;9270;49.774;8.472;2023-05-31T06:53:34;27.30;57.60
18289;DHT22;9270;49.774;8.472;2023-05-31T06:56:01;27.20;56.60
18289;DHT22;9270;49.774;8.472;2023-05-31T06:58:29;27.40;56.20
18289;DHT22;9270;49.774;8.472;2023-05-31T07:00:56;27.80;55.90
18289;DHT22;9270;49.774;8.472;2023-05-31T07:03:22;28.10;55.60
18289;DHT22;9270;49.774;8.472;2023-05-31T07:05:49;28.20;55.10
18289;DHT22;9270;49.774;8.472;2023-05-31T07:08:16;28.40;55.10
18289;DHT22;9270;49.774;8.472;2023-05-31T07:10:44;28.60;54.30
18289;DHT22;9270;49.774;8.472;2023-05-31T07:13:11;28.90;53.60
18289;DHT22;9270;49.774;8.472;2023-05-31T07:15:38;29.10;52.80
18289;DHT22;9270;49.774;8.472;2023-05-31T07:18:05;29.40;52.00
18289;DHT22;9270;49.774;8.472;2023-05-31T07:20:31;29.60;52.10
18289;DHT22;9270;49.774;8.472;2023-05-31T07:22:58;29.60;51.20
18289;DHT22;9270;49.774;8.472;2023-05-31T07:25:25;29.90;50.60
18289;DHT22;9270;49.774;8.472;2023-05-31T07:27:53;30.30;49.90
18289;DHT22;9270;49.774;8.472;2023-05-31T07:30:20;30.70;49.20
18289;DHT22;9270;49.774;8.472;2023-05-31T07:32:47;30.90;49.10
18289;DHT22;9270;49.774;8.472;2023-05-31T07:35:13;31.20;48.70
18289;DHT22;9270;49.774;8.472;2023-05-31T07:37:40;31.50;46.80
18289;DHT22;9270;49.774;8.472;2023-05-31T07:40:08;31.60;45.80
18289;DHT22;9270;49.774;8.472;2023-05-31T07:42:35;31.60;44.00
18289;DHT22;9270;49.774;8.472;2023-05-31T07:45:03;31.60;44.30
18289;DHT22;9270;49.774;8.472;2023-05-31T07:47:31;31.40;44.30
18289;DHT22;9270;49.774;8.472;2023-05-31T07:49:58;31.60;43.60
18289;DHT22;9270;49.774;8.472;2023-05-31T07:52:25;31.60;42.90
18289;DHT22;9270;49.774;8.472;2023-05-31T07:54:52;31.60;43.20
18289;DHT22;9270;49.774;8.472;2023-05-31T07:57:18;32.10;43.40
18289;DHT22;9270;49.774;8.472;2023-05-31T07:59:45;32.10;41.60
18289;DHT22;9270;49.774;8.472;2023-05-31T08:02:14;32.00;42.10
18289;DHT22;9270;49.774;8.472;2023-05-31T08:04:40;32.40;42.30
18289;DHT22;9270;49.774;8.472;2023-05-31T08:07:08;32.50;42.00
18289;DHT22;9270;49.774;8.472;2023-05-31T08:09:35;32.50;41.70
18289;DHT22;9270;49.774;8.472;2023-05-31T08:12:03;32.80;41.60
18289;DHT22;9270;49.774;8.472;2023-05-31T08:14:29;33.10;40.90
18289;DHT22;9270;49.774;8.472;2023-05-31T08:16:56;33.10;40.10
18289;DHT22;9270;49.774;8.472;2023-05-31T08:19:24;33.10;41.00
18289;DHT22;9270;49.774;8.472;2023-05-31T08:21:51;33.20;40.40
18289;DHT22;9270;49.774;8.472;2023-05-31T08:24:18;33.30;40.00
18289;DHT22;9270;49.774;8.472;2023-05-31T08:26:45;33.80;41.10
18289;DHT22;9270;49.774;8.472;2023-05-31T08:29:11;34.10;40.50
18289;DHT22;9270;49.774;8.472;2023-05-31T08:31:38;34.10;39.00
18289;DHT22;9270;49.774;8.472;2023-05-31T08:34:05;33.70;38.90
18289;DHT22;9270;49.774;8.472;2023-05-31T08:36:33;33.90;39.60
18289;DHT22;9270;49.774;8.472;2023-05-31T08:39:01;33.60;39.50
18289;DHT22;9270;49.774;8.472;2023-05-31T08:41:31;34.00;41.20
18289;DHT22;9270;49.774;8.472;2023-05-31T08:44:04;34.30;39.70
18289;DHT22;9270;49.774;8.472;2023-05-31T08:46:32;34.60;39.60
18289;DHT22;9270;49.774;8.472;2023-05-31T08:49:05;34.50;39.40
18289;DHT22;9270;49.774;8.472;2023-05-31T08:51:38;34.90;39.60
18289;DHT22;9270;49.774;8.472;2023-05-31T08:54:06;35.20;38.90
18289;DHT22;9270;49.774;8.472;2023-05-31T08:56:35;35.40;39.20
18289;DHT22;9270;49.774;8.472;2023-05-31T08:59:07;35.50;39.40
18289;DHT22;9270;49.774;8.472;2023-05-31T09:01:36;35.90;38.80
18289;DHT22;9270;49.774;8.472;2023-05-31T09:04:04;36.00;39.40
18289;DHT22;9270;49.774;8.472;2023-05-31T09:06:31;35.90;38.20
18289;DHT22;9270;49.774;8.472;2023-05-31T09:08:59;35.90;37.90
18289;DHT22;9270;49.774;8.472;2023-05-31T09:11:26;35.70;35.70
18289;DHT22;9270;49.774;8.472;2023-05-31T09:13:54;35.50;36.10
18289;DHT22;9270;49.774;8.472;2023-05-31T09:16:22;35.80;35.50
18289;DHT22;9270;49.774;8.472;2023-05-31T09:18:59;35.80;35.30
18289;DHT22;9270;49.774;8.472;2023-05-31T09:21:26;35.90;35.60
18289;DHT22;9270;49.774;8.472;2023-05-31T09:23:54;35.70;34.90
18289;DHT22;9270;49.774;8.472;2023-05-31T09:26:23;35.40;35.90
18289;DHT22;9270;49.774;8.472;2023-05-31T09:28:51;35.10;36.30
18289;DHT22;9270;49.774;8.472;2023-05-31T09:31:19;34.90;35.50
18289;DHT22;9270;49.774;8.472;2023-05-31T09:33:47;34.60;35.30
18289;DHT22;9270;49.774;8.472;2023-05-31T09:36:23;34.70;35.00
18289;DHT22;9270;49.774;8.472;2023-05-31T09:38:50;35.00;35.70
18289;DHT22;9270;49.774;8.472;2023-05-31T09:41:25;35.40;34.60
18289;DHT22;9270;49.774;8.472;2023-05-31T09:43:52;35.90;34.10
18289;DHT22;9270;49.774;8.472;2023-05-31T09:46:20;35.70;34.00
18289;DHT22;9270;49.774;8.472;2023-05-31T09:48:57;35.50;34.60
18289;DHT22;9270;49.774;8.472;2023-05-31T09:51:24;35.80;33.30
18289;DHT22;9270;49.774;8.472;2023-05-31T09:53:52;35.50;34.50
18289;DHT22;9270;49.774;8.472;2023-05-31T09:56:22;35.80;33.60
18289;DHT22;9270;49.774;8.472;2023-05-31T09:58:51;35.80;34.20
18289;DHT22;9270;49.774;8.472;2023-05-31T10:01:18;35.60;33.20
18289;DHT22;9270;49.774;8.472;2023-05-31T10:03:45;34.80;34.10
18289;DHT22;9270;49.774;8.472;2023-05-31T10:06:14;33.90;34.90
18289;DHT22;9270;49.774;8.472;2023-05-31T10:08:42;32.80;35.70
18289;DHT22;9270;49.774;8.472;2023-05-31T10:11:09;32.30;35.80
18289;DHT22;9270;49.774;8.472;2023-05-31T10:13:42;31.90;36.60
18289;DHT22;9270;49.774;8.472;2023-05-31T10:16:11;31.80;37.20
18289;DHT22;9270;49.774;8.472;2023-05-31T10:18:44;31.70;38.00
18289;DHT22;9270;49.774;8.472;2023-05-31T10:21:16;31.50;38.10
18289;DHT22;9270;49.774;8.472;2023-05-31T10:23:54;31.20;38.30
18289;DHT22;9270;49.774;8.472;2023-05-31T10:26:22;30.80;39.10
18289;DHT22;9270;49.774;8.472;2023-05-31T10:28:55;30.80;39.50
18289;DHT22;9270;49.774;8.472;2023-05-31T10:31:28;30.80;39.50
18289;DHT22;9270;49.774;8.472;2023-05-31T10:34:02;30.50;39.10
18289;DHT22;9270;49.774;8.472;2023-05-31T10:36:34;30.40;39.50
18289;DHT22;9270;49.774;8.472;2023-05-31T10:39:07;30.20;40.50
18289;DHT22;9270;49.774;8.472;2023-05-31T10:41:42;30.00;38.90
18289;DHT22;9270;49.774;8.472;2023-05-31T10:44:16;29.70;40.40
18289;DHT22;9270;49.774;8.472;2023-05-31T10:46:49;29.60;39.90
18289;DHT22;9270;49.774;8.472;2023-05-31T10:49:18;29.70;40.30
18289;DHT22;9270;49.774;8.472;2023-05-31T10:51:46;29.80;39.30
18289;DHT22;9270;49.774;8.472;2023-05-31T10:54:18;29.60;39.90
18289;DHT22;9270;49.774;8.472;2023-05-31T10:56:52;29.60;39.50
18289;DHT22;9270;49.774;8.472;2023-05-31T10:59:18;29.40;40.30
18289;DHT22;9270;49.774;8.472;2023-05-31T11:01:47;29.40;40.80
18289;DHT22;9270;49.774;8.472;2023-05-31T11:04:20;29.50;39.80
18289;DHT22;9270;49.774;8.472;2023-05-31T11:06:48;29.50;41.10
18289;DHT22;9270;49.774;8.472;2023-05-31T11:09:18;29.40;39.10
18289;DHT22;9270;49.774;8.472;2023-05-31T11:11:47;29.10;39.50
18289;DHT22;9270;49.774;8.472;2023-05-31T11:14:26;29.10;39.90
18289;DHT22;9270;49.774;8.472;2023-05-31T11:17:15;28.90;38.50
18289;DHT22;9270;49.774;8.472;2023-05-31T11:19:42;28.60;38.40
18289;DHT22;9270;49.774;8.472;2023-05-31T11:22:12;28.30;39.40
18289;DHT22;9270;49.774;8.472;2023-05-31T11:24:48;28.10;39.00
18289;DHT22;9270;49.774;8.472;2023-05-31T11:27:16;28.20;40.30
18289;DHT22;9270;49.774;8.472;2023-05-31T11:29:56;28.00;40.30
18289;DHT22;9270;49.774;8.472;2023-05-31T11:32:55;28.10;41.30
18289;DHT22;9270;49.774;8.472;2023-05-31T11:35:23;28.10;40.40
18289;DHT22;9270;49.774;8.472;2023-05-31T11:38:04;28.00;41.90
18289;DHT22;9270;49.774;8.472;2023-05-31T11:40:33;28.00;42.10
18289;DHT22;9270;49.774;8.472;2023-05-31T11:43:03;28.00;42.90
18289;DHT22;9270;49.774;8.472;2023-05-31T11:45:32;28.20;42.60
18289;DHT22;9270;49.774;8.472;2023-05-31T11:48:11;28.10;41.70
18289;DHT22;9270;49.774;8.472;2023-05-31T11:50:43;27.80;40.90
18289;DHT22;9270;49.774;8.472;2023-05-31T11:53:10;27.90;42.00
18289;DHT22;9270;49.774;8.472;2023-05-31T11:55:37;27.90;39.60
18289;DHT22;9270;49.774;8.472;2023-05-31T11:58:05;27.70;39.70
18289;DHT22;9270;49.774;8.472;2023-05-31T12:00:33;27.50;40.70
18289;DHT22;9270;49.774;8.472;2023-05-31T12:03:01;27.60;41.60
18289;DHT22;9270;49.774;8.472;2023-05-31T12:05:31;27.60;41.30
18289;DHT22;9270;49.774;8.472;2023-05-31T12:07:58;27.40;40.70
18289;DHT22;9270;49.774;8.472;2023-05-31T12:10:25;27.40;41.40
18289;DHT22;9270;49.774;8.472;2023-05-31T12:12:52;27.30;40.50
18289;DHT22;9270;49.774;8.472;2023-05-31T12:15:19;27.30;41.30
18289;DHT22;9270;49.774;8.472;2023-05-31T12:17:46;27.30;41.00
18289;DHT22;9270;49.774;8.472;2023-05-31T12:20:14;27.20;40.80
18289;DHT22;9270;49.774;8.472;2023-05-31T12:22:41;27.20;42.10
18289;DHT22;9270;49.774;8.472;2023-05-31T12:25:08;27.20;41.30
18289;DHT22;9270;49.774;8.472;2023-05-31T12:27:36;27.20;40.80
18289;DHT22;9270;49.774;8.472;2023-05-31T12:30:03;27.10;41.40
18289;DHT22;9270;49.774;8.472;2023-05-31T12:32:31;27.10;41.00
18289;DHT22;9270;49.774;8.472;2023-05-31T12:35:05;27.00;41.40
18289;DHT22;9270;49.774;8.472;2023-05-31T12:37:37;27.10;41.30
18289;DHT22;9270;49.774;8.472;2023-05-31T12:40:08;27.00;41.10
18289;DHT22;9270;49.774;8.472;2023-05-31T12:42:35;26.90;41.00
18289;DHT22;9270;49.774;8.472;2023-05-31T12:45:03;26.80;41.20
18289;DHT22;9270;49.774;8.472;2023-05-31T12:47:31;26.80;41.40
18289;DHT22;9270;49.774;8.472;2023-05-31T12:50:00;26.80;41.60
18289;DHT22;9270;49.774;8.472;2023-05-31T12:52:31;26.80;42.30
18289;DHT22;9270;49.774;8.472;2023-05-31T12:55:00;26.90;41.60
18289;DHT22;9270;49.774;8.472;2023-05-31T12:57:28;26.80;42.10
18289;DHT22;9270;49.774;8.472;2023-05-31T12:59:58;26.90;42.10
18289;DHT22;9270;49.774;8.472;2023-05-31T13:02:25;26.80;40.10
18289;DHT22;9270;49.774;8.472;2023-05-31T13:04:52;26.70;40.80
18289;DHT22;9270;49.774;8.472;2023-05-31T13:07:19;26.80;40.90
18289;DHT22;9270;49.774;8.472;2023-05-31T13:09:45;26.80;41.10
18289;DHT22;9270;49.774;8.472;2023-05-31T13:12:13;26.90;40.50
18289;DHT22;9270;49.774;8.472;2023-05-31T13:14:40;26.80;40.00
18289;DHT22;9270;49.774;8.472;2023-05-31T13:17:08;26.70;40.40
18289;DHT22;9270;49.774;8.472;2023-05-31T13:19:35;26.60;41.00
18289;DHT22;9270;49.774;8.472;2023-05-31T13:22:02;26.60;40.80
18289;DHT22;9270;49.774;8.472;2023-05-31T13:24:29;26.60;41.00
18289;DHT22;9270;49.774;8.472;2023-05-31T13:26:56;26.50;40.40
18289;DHT22;9270;49.774;8.472;2023-05-31T13:29:24;26.50;40.50
18289;DHT22;9270;49.774;8.472;2023-05-31T13:31:51;26.50;41.10
18289;DHT22;9270;49.774;8.472;2023-05-31T13:34:18;26.60;41.00
18289;DHT22;9270;49.774;8.472;2023-05-31T13:36:45;26.60;40.00
18289;DHT22;9270;49.774;8.472;2023-05-31T13:39:12;26.60;40.40
18289;DHT22;9270;49.774;8.472;2023-05-31T13:41:41;26.50;39.90
18289;DHT22;9270;49.774;8.472;2023-05-31T13:44:08;26.60;40.60
18289;DHT22;9270;49.774;8.472;2023-05-31T13:46:36;26.60;40.50
18289;DHT22;9270;49.774;8.472;2023-05-31T13:49:03;26.50;39.90
18289;DHT22;9270;49.774;8.472;2023-05-31T13:51:30;26.40;41.10
18289;DHT22;9270;49.774;8.472;2023-05-31T13:53:56;26.40;41.70
18289;DHT22;9270;49.774;8.472;2023-05-31T13:56:23;26.40;42.20
18289;DHT22;9270;49.774;8.472;2023-05-31T13:58:52;26.50;42.40
18289;DHT22;9270;49.774;8.472;2023-05-31T14:01:18;26.50;41.90
18289;DHT22;9270;49.774;8.472;2023-05-31T14:03:47;26.50;41.30
18289;DHT22;9270;49.774;8.472;2023-05-31T14:06:13;26.40;41.70
18289;DHT22;9270;49.774;8.472;2023-05-31T14:08:40;26.40;41.80
18289;DHT22;9270;49.774;8.472;2023-05-31T14:11:09;26.50;41.70
18289;DHT22;9270;49.774;8.472;2023-05-31T14:13:37;26.40;41.10
18289;DHT22;9270;49.774;8.472;2023-05-31T14:16:05;26.40;41.80
18289;DHT22;9270;49.774;8.472;2023-05-31T14:18:31;26.40;41.60
18289;DHT22;9270;49.774;8.472;2023-05-31T14:21:00;26.40;41.10
18289;DHT22;9270;49.774;8.472;2023-05-31T14:23:27;26.50;41.20
18289;DHT22;9270;49.774;8.472;2023-05-31T14:25:54;26.50;42.10
18289;DHT22;9270;49.774;8.472;2023-05-31T14:28:20;26.50;41.80
18289;DHT22;9270;49.774;8.472;2023-05-31T14:30:47;26.50;41.70
18289;DHT22;9270;49.774;8.472;2023-05-31T14:33:14;26.40;41.10
18289;DHT22;9270;49.774;8.472;2023-05-31T14:35:41;26.40;40.80
18289;DHT22;9270;49.774;8.472;2023-05-31T14:38:09;26.40;41.10
18289;DHT22;9270;49.774;8.472;2023-05-31T14:40:36;26.40;41.00
18289;DHT22;9270;49.774;8.472;2023-05-31T14:43:02;26.40;40.50
18289;DHT22;9270;49.774;8.472;2023-05-31T14:45:30;26.30;40.10
18289;DHT22;9270;49.774;8.472;2023-05-31T14:47:56;26.30;40.70
18289;DHT22;9270;49.774;8.472;2023-05-31T14:50:25;26.30;40.60
18289;DHT22;9270;49.774;8.472;2023-05-31T14:52:51;26.30;40.80
18289;DHT22;9270;49.774;8.472;2023-05-31T14:55:20;26.30;41.50
18289;DHT22;9270;49.774;8.472;2023-05-31T14:57:46;26.30;40.90
18289;DHT22;9270;49.774;8.472;2023-05-31T15:00:14;26.20;40.80
18289;DHT22;9270;49.774;8.472;2023-05-31T15:02:41;26.20;40.20
18289;DHT22;9270;49.774;8.472;2023-05-31T15:05:08;26.30;40.90
18289;DHT22;9270;49.774;8.472;2023-05-31T15:07:35;26.30;41.00
18289;DHT22;9270;49.774;8.472;2023-05-31T15:10:02;26.30;40.00
18289;DHT22;9270;49.774;8.472;2023-05-31T15:12:30;26.40;40.10
18289;DHT22;9270;49.774;8.472;2023-05-31T15:14:57;26.30;40.20
18289;DHT22;9270;49.774;8.472;2023-05-31T15:17:24;26.30;40.90
18289;DHT22;9270;49.774;8.472;2023-05-31T15:19:50;26.40;41.70
18289;DHT22;9270;49.774;8.472;2023-05-31T15:22:17;26.40;42.00
18289;DHT22;9270;49.774;8.472;2023-05-31T15:24:44;26.40;42.30
18289;DHT22;9270;49.774;8.472;2023-05-31T15:27:10;26.40;42.50
18289;DHT22;9270;49.774;8.472;2023-05-31T15:29:39;26.40;42.60
18289;DHT22;9270;49.774;8.472;2023-05-31T15:32:06;26.40;42.70
18289;DHT22;9270;49.774;8.472;2023-05-31T15:34:33;26.40;42.30
18289;DHT22;9270;49.774;8.472;2023-05-31T15:37:00;26.30;42.50
18289;DHT22;9270;49.774;8.472;2023-05-31T15:39:27;26.30;41.60
18289;DHT22;9270;49.774;8.472;2023-05-31T15:41:53;26.30;42.20
18289;DHT22;9270;49.774;8.472;2023-05-31T15:44:20;26.30;41.60
18289;DHT22;9270;49.774;8.472;2023-05-31T15:46:48;26.30;41.80
18289;DHT22;9270;49.774;8.472;2023-05-31T15:49:15;26.20;42.80
18289;DHT22;9270;49.774;8.472;2023-05-31T15:51:42;26.30;43.20
18289;DHT22;9270;49.774;8.472;2023-05-31T15:54:08;26.30;42.70